createdAt,value
2022-11-21T00:00:46.188Z,4.47
2022-11-21T00:03:14.641Z,4.51
2022-11-21T00:05:44.286Z,4.62
2022-11-21T00:08:13.443Z,4.59
2022-11-21T00:10:42.061Z,4.59
2022-11-21T00:13:14.492Z,4.53
2022-11-21T00:15:42.644Z,4.51
2022-11-21T00:18:11.721Z,4.59
2022-11-21T00:20:40.005Z,4.57
2022-11-21T00:23:08.240Z,4.79
2022-11-21T00:25:36.625Z,4.83
2022-11-21T00:28:05.049Z,4.62
2022-11-21T00:30:34.601Z,4.57
2022-11-21T00:33:02.665Z,4.64
2022-11-21T00:35:31.981Z,4.56
2022-11-21T00:38:00.072Z,4.65
2022-11-21T00:40:28.124Z,4.62
2022-11-21T00:42:56.178Z,4.67
2022-11-21T00:45:24.761Z,4.59
2022-11-21T00:47:54.222Z,4.46
2022-11-21T00:50:22.207Z,4.47
2022-11-21T00:52:50.236Z,4.48
2022-11-21T00:55:18.257Z,4.63
2022-11-21T00:57:46.296Z,4.68
2022-11-21T01:00:15.383Z,4.79
2022-11-21T01:02:43.413Z,4.72
2022-11-21T01:05:12.806Z,4.71
2022-11-21T01:07:40.926Z,4.60
2022-11-21T01:10:09.543Z,4.66
2022-11-21T01:12:37.530Z,4.48
2022-11-21T01:15:06.352Z,4.60
2022-11-21T01:17:34.929Z,4.47
2022-11-21T01:20:02.979Z,4.43
2022-11-21T01:22:32.339Z,4.51
2022-11-21T01:25:00.379Z,4.61
2022-11-21T01:27:28.404Z,4.54
2022-11-21T01:29:56.538Z,4.60
2022-11-21T01:32:24.694Z,4.80
2022-11-21T01:34:52.843Z,4.52
2022-11-21T01:37:20.875Z,4.47
2022-11-21T01:39:50.418Z,4.47
2022-11-21T01:42:18.549Z,4.41
2022-11-21T01:44:51.728Z,4.42
2022-11-21T01:47:20.730Z,4.47
2022-11-21T01:49:49.312Z,4.46
2022-11-21T01:52:20.361Z,4.27
2022-11-21T01:54:52.443Z,4.32
2022-11-21T01:57:22.516Z,4.34
2022-11-21T01:59:53.902Z,4.27
2022-11-21T02:02:26.625Z,4.34
2022-11-21T02:04:54.977Z,4.27
2022-11-21T02:07:24.311Z,4.31
2022-11-21T02:09:55.942Z,4.32
2022-11-21T02:12:27.679Z,4.29
2022-11-21T02:14:56.109Z,4.34
2022-11-21T02:17:24.171Z,4.47
2022-11-21T02:19:55.993Z,4.48
2022-11-21T02:22:30.074Z,4.37
2022-11-21T02:25:05.697Z,4.34
2022-11-21T02:27:33.880Z,4.23
2022-11-21T02:30:03.086Z,4.32
2022-11-21T02:32:34.671Z,4.33
2022-11-21T02:35:03.212Z,4.34
2022-11-21T02:37:32.282Z,4.32
2022-11-21T02:40:02.203Z,4.45
2022-11-21T02:42:34.638Z,4.38
2022-11-21T02:45:07.809Z,4.31
2022-11-21T02:47:36.751Z,4.28
2022-11-21T02:50:11.599Z,4.22
2022-11-21T02:52:39.582Z,4.31
2022-11-21T02:55:08.294Z,4.20
2022-11-21T02:57:37.716Z,4.27
2022-11-21T03:00:06.852Z,4.08
2022-11-21T03:02:34.984Z,4.04
2022-11-21T03:05:03.180Z,3.99
2022-11-21T03:07:31.303Z,3.95
2022-11-21T03:09:59.415Z,4.03
2022-11-21T03:12:27.432Z,4.16
2022-11-21T03:14:56.924Z,4.21
2022-11-21T03:17:24.921Z,4.22
2022-11-21T03:19:52.909Z,4.22
2022-11-21T03:22:20.931Z,4.27
2022-11-21T03:24:48.967Z,4.25
2022-11-21T03:27:17.032Z,4.25
2022-11-21T03:29:45.070Z,4.52
2022-11-21T03:32:14.439Z,4.66
2022-11-21T03:34:42.436Z,4.60
2022-11-21T03:37:10.453Z,4.64
2022-11-21T03:39:39.036Z,4.63
2022-11-21T03:42:07.122Z,4.55
2022-11-21T03:44:35.118Z,4.51
2022-11-21T03:47:03.498Z,4.49
2022-11-21T03:49:33.054Z,4.58
2022-11-21T03:52:01.101Z,4.54
2022-11-21T03:54:29.546Z,4.72
2022-11-21T03:56:57.751Z,4.63
2022-11-21T03:59:26.237Z,4.67
2022-11-21T04:01:54.289Z,4.71
2022-11-21T04:04:22.277Z,4.63
2022-11-21T04:06:51.814Z,4.60
2022-11-21T04:09:19.889Z,4.70
2022-11-21T04:11:47.983Z,4.69
2022-11-21T04:14:16.961Z,4.80
2022-11-21T04:16:45.011Z,4.72
2022-11-21T04:19:13.018Z,4.55
2022-11-21T04:21:41.069Z,4.60
2022-11-21T04:24:10.776Z,4.54
2022-11-21T04:26:38.843Z,4.70
2022-11-21T04:29:06.962Z,4.95
2022-11-21T04:31:34.994Z,5.00
2022-11-21T04:34:03.009Z,4.97
2022-11-21T04:36:31.234Z,5.00
2022-11-21T04:38:59.257Z,5.27
2022-11-21T04:41:28.638Z,5.58
2022-11-21T04:43:56.780Z,5.62
2022-11-21T04:46:24.801Z,5.70
2022-11-21T04:48:52.901Z,5.70
2022-11-21T04:51:20.926Z,5.68
2022-11-21T04:53:48.995Z,5.64
2022-11-21T04:56:17.187Z,5.63
2022-11-21T04:58:46.969Z,5.65
2022-11-21T05:01:15.091Z,5.58
2022-11-21T05:03:43.247Z,5.58
2022-11-21T05:06:11.214Z,5.59
2022-11-21T05:08:39.254Z,5.59
2022-11-21T05:11:24.744Z,5.62
2022-11-21T05:13:55.423Z,5.58
2022-11-21T05:16:23.410Z,5.57
2022-11-21T05:18:51.444Z,5.65
2022-11-21T05:21:19.533Z,5.72
2022-11-21T05:23:47.590Z,5.68
2022-11-21T05:26:15.984Z,5.77
2022-11-21T05:28:44.141Z,5.98
2022-11-21T05:31:13.512Z,5.99
2022-11-21T05:33:41.553Z,6.09
2022-11-21T05:36:09.579Z,6.31
2022-11-21T05:38:37.596Z,6.18
2022-11-21T05:41:05.595Z,6.31
2022-11-21T05:43:49.089Z,6.35
2022-11-21T05:46:20.315Z,6.32
2022-11-21T05:48:49.245Z,6.15
2022-11-21T05:51:18.393Z,6.16
2022-11-21T05:53:46.645Z,6.16
2022-11-21T05:56:16.057Z,6.09
2022-11-21T05:58:44.167Z,6.13
2022-11-21T06:01:14.606Z,6.06
2022-11-21T06:03:43.271Z,6.13
2022-11-21T06:06:12.617Z,6.26
2022-11-21T06:08:42.409Z,6.24
2022-11-21T06:11:12.210Z,6.32
2022-11-21T06:13:40.431Z,6.34
2022-11-21T06:16:10.724Z,6.21
2022-11-21T06:18:39.942Z,6.24
2022-11-21T06:21:10.456Z,6.30
2022-11-21T06:23:38.472Z,6.38
2022-11-21T06:26:08.370Z,6.42
2022-11-21T06:28:37.845Z,6.38
2022-11-21T06:31:06.627Z,6.30
2022-11-21T06:33:35.919Z,6.28
2022-11-21T06:36:04.703Z,6.40
2022-11-21T06:38:34.800Z,6.45
2022-11-21T06:41:05.630Z,6.40
2022-11-21T06:43:33.689Z,6.40
2022-11-21T06:46:03.411Z,6.39
2022-11-21T06:48:31.495Z,6.38
2022-11-21T06:50:59.566Z,6.26
2022-11-21T06:53:27.675Z,6.22
2022-11-21T06:55:59.725Z,6.25
2022-11-21T06:58:27.866Z,6.29
2022-11-21T07:00:56.093Z,6.42
2022-11-21T07:03:24.252Z,6.44
2022-11-21T07:05:53.722Z,6.35
2022-11-21T07:08:21.720Z,6.39
2022-11-21T07:11:22.657Z,6.14
2022-11-21T07:13:39.170Z,6.14
2022-11-21T07:16:08.850Z,6.22
2022-11-21T07:18:37.549Z,6.16
2022-11-21T07:21:06.712Z,6.18
2022-11-21T07:23:35.775Z,6.17
2022-11-21T07:26:04.713Z,6.16
2022-11-21T07:28:33.307Z,6.24
2022-11-21T07:31:07.062Z,6.21
2022-11-21T07:33:38.313Z,6.18
2022-11-21T07:36:07.406Z,6.30
2022-11-21T07:38:35.471Z,6.33
2022-11-21T07:41:03.667Z,6.26
2022-11-21T07:43:31.693Z,6.28
2022-11-21T07:45:59.757Z,6.27
2022-11-21T07:48:29.214Z,6.25
2022-11-21T07:50:57.328Z,6.19
2022-11-21T07:53:25.364Z,6.24
2022-11-21T07:55:53.430Z,6.29
2022-11-21T07:58:21.510Z,6.24
2022-11-21T08:00:49.634Z,6.26
2022-11-21T08:03:17.703Z,6.37
2022-11-21T08:05:47.156Z,6.41
2022-11-21T08:08:15.480Z,6.50
2022-11-21T08:10:44.838Z,6.47
2022-11-21T08:13:13.898Z,6.55
2022-11-21T08:15:42.147Z,6.61
2022-11-21T08:18:11.807Z,6.70
2022-11-21T08:20:41.344Z,6.91
2022-11-21T08:23:12.523Z,6.89
2022-11-21T08:25:43.120Z,6.96
2022-11-21T08:28:12.872Z,6.95
2022-11-21T08:30:41.940Z,6.96
2022-11-21T08:33:10.139Z,7.08
2022-11-21T08:35:39.895Z,7.07
2022-11-21T08:38:08.197Z,7.32
2022-11-21T08:40:37.929Z,7.22
2022-11-21T08:43:07.702Z,7.23
2022-11-21T08:45:36.761Z,7.43
2022-11-21T08:48:05.251Z,7.59
2022-11-21T08:50:33.383Z,7.66
2022-11-21T08:53:02.457Z,7.69
2022-11-21T08:55:31.056Z,7.82
2022-11-21T08:58:00.580Z,7.85
2022-11-21T09:00:28.681Z,7.85
2022-11-21T09:02:56.801Z,7.83
2022-11-21T09:05:24.811Z,7.77
2022-11-21T09:07:59.499Z,7.87
2022-11-21T09:10:29.074Z,7.94
2022-11-21T09:13:00.296Z,7.92
2022-11-21T09:15:42.264Z,7.73
2022-11-21T09:18:12.612Z,7.72
2022-11-21T09:20:42.226Z,7.84
2022-11-21T09:23:12.212Z,7.93
2022-11-21T09:25:40.372Z,7.92
2022-11-21T09:28:11.145Z,7.91
2022-11-21T09:30:39.808Z,8.05
2022-11-21T09:33:09.476Z,8.16
2022-11-21T09:35:37.685Z,8.24
2022-11-21T09:38:06.175Z,8.38
2022-11-21T09:40:35.664Z,8.48
2022-11-21T09:43:31.631Z,8.24
2022-11-21T09:46:04.833Z,8.53
2022-11-21T09:48:36.130Z,8.53
2022-11-21T09:51:09.036Z,8.61
2022-11-21T09:53:39.156Z,8.79
2022-11-21T09:56:10.087Z,9.03
2022-11-21T09:58:43.160Z,8.97
2022-11-21T10:01:12.201Z,9.06
2022-11-21T10:03:43.028Z,9.19
2022-11-21T10:06:19.729Z,9.16
2022-11-21T10:08:56.362Z,9.16
2022-11-21T10:11:35.148Z,9.02
2022-11-21T10:14:13.237Z,9.10
2022-11-21T10:16:45.967Z,9.13
2022-11-21T10:19:23.299Z,9.29
2022-11-21T10:22:09.835Z,9.31
2022-11-21T10:24:46.147Z,9.40
2022-11-21T10:27:17.290Z,9.41
2022-11-21T10:29:50.683Z,9.45
2022-11-21T10:32:24.848Z,9.41
2022-11-21T10:34:56.440Z,9.36
2022-11-21T10:37:32.408Z,9.22
2022-11-21T10:40:09.402Z,9.27
2022-11-21T10:42:40.001Z,9.22
2022-11-21T10:45:19.385Z,9.27
2022-11-21T10:47:48.941Z,9.29
2022-11-21T10:50:30.148Z,9.27
2022-11-21T10:53:27.647Z,9.37
2022-11-21T10:56:02.016Z,9.24
2022-11-21T10:58:45.484Z,9.14
2022-11-21T11:01:23.801Z,9.14
2022-11-21T11:04:41.598Z,9.04
2022-11-21T11:07:22.016Z,9.05
2022-11-21T11:09:52.429Z,8.99
2022-11-21T11:12:56.084Z,9.06
2022-11-21T11:15:25.322Z,9.15
2022-11-21T11:17:57.825Z,9.05
2022-11-21T11:20:39.737Z,9.11
2022-11-21T11:23:22.379Z,9.07
2022-11-21T11:25:51.949Z,8.99
2022-11-21T11:28:29.325Z,8.90
2022-11-21T11:30:59.101Z,8.71
2022-11-21T11:33:51.817Z,8.68
2022-11-21T11:36:32.512Z,8.53
2022-11-21T11:39:02.033Z,8.41
2022-11-21T11:42:35.597Z,8.24
2022-11-21T11:45:47.024Z,8.27
2022-11-21T11:48:16.035Z,8.24
2022-11-21T11:50:49.675Z,8.22
2022-11-21T11:53:20.079Z,8.29
2022-11-21T11:55:53.074Z,8.35
2022-11-21T11:58:26.340Z,8.27
2022-11-21T12:01:00.962Z,8.14
2022-11-21T12:03:35.686Z,8.30
2022-11-21T12:06:09.705Z,8.36
2022-11-21T12:08:43.157Z,8.31
2022-11-21T12:11:44.325Z,8.33
2022-11-21T12:14:35.810Z,8.53
2022-11-21T12:17:06.680Z,8.52
2022-11-21T12:19:35.542Z,8.43
2022-11-21T12:22:06.615Z,8.38
2022-11-21T12:24:39.779Z,8.35
2022-11-21T12:27:21.439Z,8.40
2022-11-21T12:30:00.390Z,8.29
2022-11-21T12:32:40.081Z,8.46
2022-11-21T12:35:43.615Z,8.43
2022-11-21T12:38:22.631Z,8.30
2022-11-21T12:40:59.123Z,8.19
2022-11-21T12:43:34.523Z,8.14
2022-11-21T12:46:09.149Z,8.19
2022-11-21T12:49:02.027Z,8.24
2022-11-21T12:52:11.265Z,8.16
2022-11-21T12:55:10.952Z,8.20
2022-11-21T12:57:48.000Z,8.24
2022-11-21T13:00:20.117Z,8.29
2022-11-21T13:03:33.455Z,8.22
2022-11-21T13:06:03.063Z,8.24
2022-11-21T13:08:32.484Z,8.31
2022-11-21T13:11:25.509Z,8.17
2022-11-21T13:14:00.584Z,8.13
2022-11-21T13:16:37.792Z,8.22
2022-11-21T13:19:14.148Z,8.19
2022-11-21T13:21:43.143Z,8.24
2022-11-21T13:24:11.693Z,8.20
2022-11-21T13:26:53.296Z,8.11
2022-11-21T13:29:21.334Z,8.20
2022-11-21T13:31:49.363Z,8.11
2022-11-21T13:34:38.397Z,8.18
2022-11-21T13:37:07.080Z,8.09
2022-11-21T13:39:39.189Z,8.12
2022-11-21T13:42:33.213Z,8.20
2022-11-21T13:45:40.681Z,8.13
2022-11-21T13:48:53.427Z,8.16
2022-11-21T13:51:50.745Z,8.22
2022-11-21T13:54:50.592Z,8.28
2022-11-21T13:57:51.439Z,8.12
2022-11-21T14:00:29.648Z,8.26
2022-11-21T14:03:30.387Z,8.30
2022-11-21T14:06:19.597Z,8.44
2022-11-21T14:09:06.400Z,8.36
2022-11-21T14:11:38.108Z,8.43
2022-11-21T14:14:06.228Z,8.48
2022-11-21T14:16:37.977Z,8.35
2022-11-21T14:19:06.628Z,8.34
2022-11-21T14:21:35.792Z,8.48
2022-11-21T14:24:06.443Z,8.56
2022-11-21T14:26:47.214Z,8.48
2022-11-21T14:29:19.345Z,8.63
2022-11-21T14:31:49.584Z,8.63
2022-11-21T14:34:26.276Z,8.63
2022-11-21T14:36:54.775Z,8.61
2022-11-21T14:39:37.175Z,8.61
2022-11-21T14:42:13.581Z,8.43
2022-11-21T14:44:41.781Z,8.48
2022-11-21T14:47:21.223Z,8.56
2022-11-21T14:49:52.295Z,8.43
2022-11-21T14:52:24.531Z,8.17
2022-11-21T14:57:43.656Z,8.28
2022-11-21T15:00:51.553Z,8.22
2022-11-21T15:03:23.888Z,8.15
2022-11-21T15:06:04.584Z,8.26
2022-11-21T15:11:24.765Z,8.41
2022-11-21T15:16:44.959Z,8.10
2022-11-21T15:19:21.099Z,8.06
2022-11-21T15:21:51.681Z,8.10
2022-11-21T15:24:29.497Z,8.25
2022-11-21T15:26:57.705Z,7.98
2022-11-21T15:29:25.961Z,8.08
2022-11-21T15:32:15.769Z,8.03
2022-11-21T15:34:47.328Z,7.87
2022-11-21T15:37:17.937Z,7.79
2022-11-21T15:39:48.268Z,7.87
2022-11-21T15:42:40.496Z,7.80
2022-11-21T15:45:26.963Z,7.75
2022-11-21T15:47:56.735Z,7.71
2022-11-21T15:50:26.524Z,7.63
2022-11-21T15:52:54.857Z,7.69
2022-11-21T15:55:26.384Z,7.78
2022-11-21T15:57:54.445Z,7.83
2022-11-21T16:00:22.986Z,7.77
2022-11-21T16:02:51.208Z,7.82
2022-11-21T16:05:19.287Z,7.62
2022-11-21T16:07:48.978Z,7.71
2022-11-21T16:10:25.912Z,7.55
2022-11-21T16:12:55.497Z,7.67
2022-11-21T16:15:24.037Z,7.55
2022-11-21T16:17:53.101Z,7.42
2022-11-21T16:20:21.241Z,7.54
2022-11-21T16:22:51.335Z,7.55
2022-11-21T16:25:19.676Z,7.62
2022-11-21T16:27:48.328Z,7.51
2022-11-21T16:30:16.841Z,7.45
2022-11-21T16:32:44.852Z,7.51
2022-11-21T16:35:13.351Z,7.58
2022-11-21T16:37:42.347Z,7.39
2022-11-21T16:40:12.846Z,7.35
2022-11-21T16:42:41.663Z,7.31
2022-11-21T16:45:11.706Z,7.34
2022-11-21T16:47:43.099Z,7.27
2022-11-21T16:50:16.234Z,7.22
2022-11-21T16:52:44.680Z,7.26
2022-11-21T16:55:16.538Z,7.24
2022-11-21T16:57:45.696Z,7.37
2022-11-21T17:00:16.897Z,7.25
2022-11-21T17:02:47.149Z,7.15
2022-11-21T17:05:15.634Z,7.25
2022-11-21T17:07:45.600Z,7.12
2022-11-21T17:10:16.087Z,7.04
2022-11-21T17:12:45.490Z,6.95
2022-11-21T17:15:16.111Z,6.95
2022-11-21T17:17:44.341Z,7.02
2022-11-21T17:20:13.192Z,6.91
2022-11-21T17:22:50.602Z,6.84
2022-11-21T17:25:22.600Z,6.86
2022-11-21T17:27:52.870Z,6.86
2022-11-21T17:30:22.051Z,6.87
2022-11-21T17:32:50.920Z,6.76
2022-11-21T17:35:20.346Z,6.71
2022-11-21T17:37:49.736Z,6.81
2022-11-21T17:40:18.535Z,6.79
2022-11-21T17:42:48.610Z,6.73
2022-11-21T17:45:17.908Z,6.75
2022-11-21T17:47:47.246Z,6.76
2022-11-21T17:50:16.324Z,6.75
2022-11-21T17:52:47.043Z,6.66
2022-11-21T17:55:16.859Z,6.80
2022-11-21T17:57:46.942Z,6.62
2022-11-21T18:00:19.603Z,6.62
2022-11-21T18:02:49.423Z,6.59
2022-11-21T18:05:18.404Z,6.46
2022-11-21T18:07:50.649Z,6.41
2022-11-21T18:10:42.235Z,6.54
2022-11-21T18:13:09.569Z,6.29
2022-11-21T18:15:39.545Z,6.50
2022-11-21T18:18:08.813Z,6.28
2022-11-21T18:20:38.134Z,6.22
2022-11-21T18:23:07.573Z,6.33
2022-11-21T18:25:37.334Z,6.26
2022-11-21T18:28:07.094Z,6.14
2022-11-21T18:30:36.978Z,6.21
2022-11-21T18:33:08.293Z,6.04
2022-11-21T18:35:37.768Z,6.15
2022-11-21T18:38:06.582Z,6.00
2022-11-21T18:40:36.164Z,5.91
2022-11-21T18:43:09.518Z,6.03
2022-11-21T18:45:39.342Z,6.12
2022-11-21T18:48:10.476Z,5.92
2022-11-21T18:50:40.273Z,5.87
2022-11-21T18:53:11.249Z,5.88
2022-11-21T18:55:41.645Z,5.96
2022-11-21T18:58:12.096Z,6.00
2022-11-21T19:00:49.613Z,6.17
2022-11-21T19:03:29.311Z,5.91
2022-11-21T19:06:11.250Z,5.91
2022-11-21T19:08:44.611Z,5.91
2022-11-21T19:11:20.658Z,5.84
2022-11-21T19:13:51.863Z,5.87
2022-11-21T19:16:28.689Z,5.84
2022-11-21T19:19:32.624Z,5.65
2022-11-21T19:21:51.046Z,5.87
2022-11-21T19:24:21.615Z,5.83
2022-11-21T19:26:53.959Z,5.81
2022-11-21T19:29:23.624Z,5.79
2022-11-21T19:31:54.487Z,5.67
2022-11-21T19:34:26.099Z,5.63
2022-11-21T19:36:56.403Z,5.63
2022-11-21T19:39:32.435Z,5.80
2022-11-21T19:42:02.491Z,5.69
2022-11-21T19:44:33.551Z,5.74
2022-11-21T19:47:04.814Z,5.92
2022-11-21T19:49:37.377Z,5.71
2022-11-21T19:52:07.324Z,5.75
2022-11-21T19:54:40.979Z,5.66
2022-11-21T19:57:13.857Z,5.78
2022-11-21T19:59:47.017Z,5.76
2022-11-21T20:02:19.736Z,5.65
2022-11-21T20:04:51.993Z,5.63
2022-11-21T20:07:21.362Z,5.50
2022-11-21T20:09:52.757Z,5.46
2022-11-21T20:12:22.995Z,5.46
2022-11-21T20:14:54.314Z,5.35
2022-11-21T20:17:26.097Z,5.56
2022-11-21T20:20:00.407Z,5.51
2022-11-21T20:22:30.538Z,5.59
2022-11-21T20:25:04.072Z,5.29
2022-11-21T20:27:33.624Z,5.38
2022-11-21T20:30:05.541Z,5.42
2022-11-21T20:32:36.432Z,5.37
2022-11-21T20:35:13.893Z,5.41
2022-11-21T20:37:43.769Z,5.48
2022-11-21T20:40:14.609Z,5.37
2022-11-21T20:42:45.724Z,5.36
2022-11-21T20:48:10.492Z,5.29
2022-11-21T20:51:50.959Z,5.17
2022-11-21T20:53:56.163Z,5.25
2022-11-21T20:56:29.612Z,5.22
2022-11-21T20:58:59.265Z,5.16
2022-11-21T21:01:30.001Z,5.17
2022-11-21T21:03:58.995Z,5.15
2022-11-21T21:06:29.782Z,5.02
2022-11-21T21:08:58.289Z,5.05
2022-11-21T21:11:50.806Z,5.23
2022-11-21T21:14:17.217Z,5.14
2022-11-21T21:16:47.944Z,5.03
2022-11-21T21:19:16.775Z,5.17
2022-11-21T21:21:48.514Z,5.06
2022-11-21T21:24:18.171Z,5.16
2022-11-21T21:26:50.154Z,5.11
2022-11-21T21:29:20.645Z,4.86
2022-11-21T21:31:52.345Z,4.97
2022-11-21T21:34:22.681Z,4.88
2022-11-21T21:36:53.619Z,4.96
2022-11-21T21:39:21.851Z,4.87
2022-11-21T21:41:53.454Z,4.89
2022-11-21T21:44:21.568Z,4.84
2022-11-21T21:46:51.017Z,4.78
2022-11-21T21:49:26.849Z,4.83
2022-11-21T21:51:57.610Z,4.98
2022-11-21T21:54:26.816Z,4.76
2022-11-21T21:56:56.532Z,4.82
2022-11-21T21:59:25.716Z,4.86
2022-11-21T22:01:57.235Z,4.71
2022-11-21T22:04:25.656Z,4.77
2022-11-21T22:06:55.011Z,4.63
2022-11-21T22:09:25.155Z,4.63
2022-11-21T22:11:54.132Z,4.35
2022-11-21T22:14:23.028Z,4.23
2022-11-21T22:16:53.093Z,4.36
2022-11-21T22:19:22.104Z,4.40
2022-11-21T22:21:51.819Z,4.25
2022-11-21T22:24:25.916Z,4.15
2022-11-21T22:26:57.091Z,4.12
2022-11-21T22:29:25.669Z,4.25
2022-11-21T22:31:54.818Z,4.39
2022-11-21T22:34:23.974Z,4.15
2022-11-21T22:36:53.387Z,4.17
2022-11-21T22:39:21.427Z,4.30
2022-11-21T22:41:51.162Z,4.23
2022-11-21T22:44:22.847Z,3.92
2022-11-21T22:46:52.554Z,4.03
2022-11-21T22:49:20.820Z,3.99
2022-11-21T22:51:50.137Z,4.15
2022-11-21T22:54:18.635Z,3.96
2022-11-21T22:57:00.645Z,3.93
2022-11-21T22:59:31.241Z,3.91
2022-11-21T23:02:00.902Z,3.97
2022-11-21T23:04:29.750Z,3.78
2022-11-21T23:06:57.902Z,4.01
2022-11-21T23:09:25.965Z,4.02
2022-11-21T23:11:54.039Z,4.22
2022-11-21T23:14:22.703Z,4.39
2022-11-21T23:16:53.629Z,4.48
2022-11-21T23:19:24.325Z,4.19
2022-11-21T23:21:54.815Z,4.28
2022-11-21T23:24:22.902Z,4.15
2022-11-21T23:26:52.016Z,4.43
2022-11-21T23:29:20.077Z,4.41
2022-11-21T23:31:49.199Z,4.22
2022-11-21T23:34:19.114Z,4.32
2022-11-21T23:36:48.447Z,4.27
2022-11-21T23:39:16.720Z,4.41
2022-11-21T23:41:46.135Z,4.57
2022-11-21T23:44:15.740Z,4.39
2022-11-21T23:46:45.409Z,4.69
2022-11-21T23:49:13.777Z,4.55
2022-11-21T23:51:44.389Z,4.58
2022-11-21T23:54:12.935Z,4.69
2022-11-21T23:56:42.055Z,4.60
2022-11-21T23:59:12.802Z,4.66
